Helmic, Texas
Current Conditions -  °F | °C
As of 4:53 PM on Thursday 20 Nov 2014 (Local Time) from KLFK Reporting Station
Overcast Overcast  
Wind Chill: 70°   Ceiling: 5500
Heat Index: 70°   Visibility: 10mi
Dew Point: 54°   Wind: 9mph
Humidity: 57%   Direction: 170°S
Pressure: 30.08"   Gusts: NA
Location:  31.0585°N, 95.0561°W
Report Text: KLFK 202253Z AUTO 17008KT 10SM BKN055 OVC070 21/12 A3008 RMK AO2 SLP184 T02110122
Loading
Personal Weather Stations






























Interactive Weather Map New forecast layout! Learn more

10-Day Weather Forecast

Advertisements
Track Severe Weather on mobile